Time;durP1;ratioP1;P1;durP2;ratioP2;P2;SDS_P1;SDS_P2;PMS_P1;PMS_P2;Temp;Humidity;BMP_temperature;BMP_pressure;BME280_temperature;BME280_humidity;BME280_pressure;Samples;Min_cycle;Max_cycle;Signal;HPM_P1;HPM_P2
2022/10/12 00:01:20;;;;;;;7.10;4.13;;;;;;;7.38;100.00;102616.75;5076160;27;20504;-81
2022/10/12 00:03:49;;;;;;;7.22;3.97;;;;;;;7.36;100.00;102612.28;5112831;28;20260;-81
2022/10/12 00:06:20;;;;;;;6.50;4.32;;;;;;;7.34;100.00;102606.97;5113983;28;20039;-80
2022/10/12 00:08:50;;;;;;;9.45;4.55;;;;;;;7.33;100.00;102606.88;5107238;27;24126;-79
2022/10/12 00:11:23;;;;;;;8.30;4.13;;;;;;;7.30;100.00;102615.53;5101940;28;20400;-80
2022/10/12 00:13:53;;;;;;;6.63;4.28;;;;;;;7.28;100.00;102609.31;5113078;28;20054;-80
2022/10/12 00:16:23;;;;;;;9.57;4.47;;;;;;;7.26;100.00;102608.34;5131663;27;20046;-79
2022/10/12 00:18:54;;;;;;;12.20;4.47;;;;;;;7.24;100.00;102610.00;5097806;27;20558;-80
2022/10/12 00:21:24;;;;;;;8.88;4.32;;;;;;;7.23;100.00;102610.81;5109648;27;20539;-81
2022/10/12 00:23:59;;;;;;;10.60;4.25;;;;;;;7.22;100.00;102609.00;5122981;27;20531;-81
2022/10/12 00:26:28;;;;;;;8.57;4.45;;;;;;;7.20;100.00;102613.28;5111862;27;20036;-82
2022/10/12 00:29:00;;;;;;;9.60;4.40;;;;;;;7.17;100.00;102607.94;5107415;27;20282;-80
2022/10/12 00:31:29;;;;;;;11.30;4.82;;;;;;;7.16;100.00;102616.59;5123434;27;20051;-80
2022/10/12 00:34:02;;;;;;;9.10;5.32;;;;;;;7.14;100.00;102613.91;5087174;27;20192;-79
2022/10/12 00:36:34;;;;;;;11.32;4.43;;;;;;;7.13;100.00;102612.13;5113030;27;20043;-81
2022/10/12 00:39:05;;;;;;;9.45;4.35;;;;;;;7.11;100.00;102608.56;5129510;27;20051;-80
2022/10/12 00:41:42;;;;;;;10.70;4.70;;;;;;;7.10;100.00;102608.47;5099197;27;20042;-81
2022/10/12 00:44:40;;;;;;;8.27;4.47;;;;;;;7.09;100.00;102604.03;5128931;27;20051;-79
2022/10/12 00:47:20;;;;;;;7.50;4.75;;;;;;;7.06;100.00;102606.53;5113364;27;20051;-80
2022/10/12 00:50:13;;;;;;;9.98;4.93;;;;;;;7.03;100.00;102613.44;5095498;27;20043;-79
2022/10/12 00:52:48;;;;;;;12.27;4.95;;;;;;;7.00;100.00;102610.66;5098598;27;20243;-79
2022/10/12 00:55:18;;;;;;;6.40;4.50;;;;;;;6.98;100.00;102607.09;5102353;27;20058;-80
2022/10/12 00:57:51;;;;;;;7.45;4.32;;;;;;;6.95;100.00;102617.41;5093604;27;20259;-79
2022/10/12 01:00:20;;;;;;;7.55;4.88;;;;;;;6.92;100.00;102609.44;5102635;28;20507;-80
2022/10/12 01:02:51;;;;;;;8.75;4.57;;;;;;;6.89;100.00;102609.28;5111260;27;20066;-80
2022/10/12 01:05:21;;;;;;;6.00;4.50;;;;;;;6.87;100.00;102613.56;5068007;28;20048;-79
2022/10/12 01:07:50;;;;;;;9.25;4.43;;;;;;;6.84;100.00;102602.91;5096731;27;20606;-79
2022/10/12 01:10:21;;;;;;;7.55;4.55;;;;;;;6.83;100.00;102614.25;5126543;27;20043;-80
2022/10/12 01:12:49;;;;;;;8.63;4.75;;;;;;;6.80;100.00;102612.34;5109728;27;20039;-79
2022/10/12 01:15:18;;;;;;;5.97;4.18;;;;;;;6.79;100.00;102609.69;5126230;27;20047;-80
2022/10/12 01:18:08;;;;;;;6.10;4.38;;;;;;;6.78;100.00;102610.50;5085738;28;20690;-80
2022/10/12 01:20:39;;;;;;;7.47;4.47;;;;;;;6.76;100.00;102610.41;5074963;27;20028;-80
2022/10/12 01:23:40;;;;;;;10.45;5.30;;;;;;;6.75;100.00;102602.50;5115792;27;20399;-80
2022/10/12 01:26:14;;;;;;;11.25;4.75;;;;;;;6.74;100.00;102603.31;5115223;27;20055;-80
2022/10/12 01:28:43;;;;;;;8.88;4.43;;;;;;;6.73;100.00;102599.81;5112003;27;20492;-81
2022/10/12 01:31:31;;;;;;;6.25;4.60;;;;;;;6.74;100.00;102603.31;5121775;27;20039;-80
2022/10/12 01:34:17;;;;;;;6.43;3.97;;;;;;;6.73;100.00;102601.50;5090193;28;20047;-80
2022/10/12 01:37:20;;;;;;;8.13;4.60;;;;;;;6.72;100.00;102595.38;5064524;27;20460;-80
2022/10/12 01:39:53;;;;;;;6.40;3.92;;;;;;;6.71;100.00;102590.06;5082343;28;20039;-80
2022/10/12 01:42:28;;;;;;;5.93;4.65;;;;;;;6.72;100.00;102597.13;5104620;28;20044;-80
2022/10/12 01:45:11;;;;;;;10.43;4.63;;;;;;;6.70;100.00;102593.53;5083770;28;20425;-80
2022/10/12 01:47:43;;;;;;;8.18;4.85;;;;;;;6.69;100.00;102590.03;5092125;28;20272;-81
2022/10/12 01:50:14;;;;;;;6.80;4.53;;;;;;;6.69;100.00;102586.47;5058001;28;20114;-79
2022/10/12 01:52:51;;;;;;;;;;;;;;;6.69;100.00;102589.09;5091960;28;20536;-80
2022/10/12 01:55:31;;;;;;;8.60;5.13;;;;;;;6.67;100.00;102577.66;5096404;28;19923;-80
2022/10/12 01:58:02;;;;;;;8.15;4.93;;;;;;;6.67;100.00;102585.50;5086827;28;20688;-79
2022/10/12 02:00:41;;;;;;;17.95;6.10;;;;;;;6.66;100.00;102584.63;5096270;28;20032;-80
2022/10/12 02:03:09;;;;;;;11.52;5.00;;;;;;;6.65;100.00;102582.81;5092214;28;20055;-81
2022/10/12 02:06:10;;;;;;;11.50;5.07;;;;;;;6.63;100.00;102577.53;5059983;28;20035;-80
2022/10/12 02:08:58;;;;;;;10.40;5.07;;;;;;;6.62;100.00;102580.06;5052627;28;20048;-82
2022/10/12 02:11:27;;;;;;;8.38;4.90;;;;;;;6.61;100.00;102576.53;5100126;28;20508;-80
2022/10/12 02:14:02;;;;;;;11.68;4.70;;;;;;;6.60;100.00;102579.09;5089620;28;20048;-79
2022/10/12 02:16:40;;;;;;;6.50;4.07;;;;;;;6.58;100.00;102571.16;5103123;28;20039;-80
2022/10/12 02:19:12;;;;;;;8.25;4.50;;;;;;;6.55;100.00;102571.00;5104334;28;20046;-79
2022/10/12 02:21:43;;;;;;;7.03;4.25;;;;;;;6.56;100.00;102569.28;5062899;28;20059;-81
2022/10/12 02:24:15;;;;;;;9.82;4.03;;;;;;;6.54;100.00;102566.63;5084541;28;20044;-81
2022/10/12 02:26:46;;;;;;;5.47;3.90;;;;;;;6.55;100.00;102571.00;5089628;28;20066;-80
2022/10/12 02:29:24;;;;;;;7.60;3.80;;;;;;;6.53;100.00;102566.53;5059975;28;20043;-79
2022/10/12 02:31:59;;;;;;;6.40;3.92;;;;;;;6.51;100.00;102566.47;5081586;28;20560;-81
2022/10/12 02:35:02;;;;;;;4.05;3.65;;;;;;;6.51;100.00;102553.38;5101837;28;20050;-80
2022/10/12 02:37:50;;;;;;;10.98;5.57;;;;;;;6.49;100.00;102555.03;5072857;28;20044;-81
2022/10/12 02:40:33;;;;;;;4.78;3.78;;;;;;;6.50;100.00;102553.28;5073040;28;20040;-80
2022/10/12 02:43:09;;;;;;;5.18;3.83;;;;;;;6.52;100.00;102547.31;5085460;28;20063;-80
2022/10/12 02:45:42;;;;;;;7.07;3.90;;;;;;;6.52;100.00;102549.00;5073702;28;20040;-79
2022/10/12 02:48:16;;;;;;;7.03;4.72;;;;;;;6.51;100.00;102544.63;5085440;28;20413;-81
2022/10/12 02:50:47;;;;;;;8.52;3.30;;;;;;;6.51;100.00;102542.88;5062403;28;20255;-80
2022/10/12 02:53:16;;;;;;;5.68;3.88;;;;;;;6.51;100.00;102542.88;5087779;28;20843;-80
2022/10/12 02:55:59;;;;;;;6.22;3.50;;;;;;;6.49;100.00;102541.03;5043782;28;20343;-80
2022/10/12 02:58:28;;;;;;;6.25;3.38;;;;;;;6.48;100.00;102540.13;5090299;28;20051;-81
2022/10/12 03:00:57;;;;;;;3.83;3.35;;;;;;;6.48;100.00;102534.00;5068557;28;20793;-80
2022/10/12 03:03:25;;;;;;;5.57;3.10;;;;;;;6.47;100.00;102538.34;5084091;28;20080;-81
2022/10/12 03:05:55;;;;;;;3.40;3.10;;;;;;;6.50;100.00;102540.19;5074091;28;20354;-80
2022/10/12 03:08:23;;;;;;;5.88;3.38;;;;;;;6.50;100.00;102543.69;5081625;28;20060;-81
2022/10/12 03:10:51;;;;;;;4.55;3.60;;;;;;;6.51;100.00;102540.28;5045005;28;20045;-80
2022/10/12 03:13:23;;;;;;;3.80;3.03;;;;;;;6.54;100.00;102544.75;5076821;28;20052;-80
2022/10/12 03:15:51;;;;;;;3.75;3.33;;;;;;;6.54;100.00;102535.19;5062976;28;20441;-80
2022/10/12 03:18:19;;;;;;;4.07;3.42;;;;;;;6.55;100.00;102531.72;5074208;28;20482;-80
2022/10/12 03:20:48;;;;;;;3.97;3.60;;;;;;;6.57;100.00;102535.31;5071709;28;20160;-79
2022/10/12 03:23:17;;;;;;;3.58;3.20;;;;;;;6.58;100.00;102534.50;5086362;28;20043;-80
2022/10/12 03:25:45;;;;;;;5.40;3.80;;;;;;;6.60;100.00;102531.97;5031690;28;20704;-80
2022/10/12 03:28:13;;;;;;;4.07;3.78;;;;;;;6.59;100.00;102530.16;5078993;28;20047;-80
2022/10/12 03:30:43;;;;;;;6.93;3.85;;;;;;;6.61;100.00;102526.75;5044451;28;20417;-80
2022/10/12 03:33:12;;;;;;;7.18;4.25;;;;;;;6.62;100.00;102518.09;5086686;28;20051;-80
2022/10/12 03:35:44;;;;;;;6.78;4.00;;;;;;;6.63;100.00;102522.53;5080169;27;20178;-80
2022/10/12 03:38:14;;;;;;;6.13;4.20;;;;;;;6.64;100.00;102521.69;5110457;27;20147;-80
2022/10/12 03:40:43;;;;;;;4.53;3.93;;;;;;;6.66;100.00;102528.72;5074801;28;20055;-81
2022/10/12 03:43:12;;;;;;;5.78;3.50;;;;;;;6.65;100.00;102517.31;5086958;27;20039;-79
2022/10/12 03:45:40;;;;;;;4.03;3.40;;;;;;;6.66;100.00;102516.50;5092812;28;20212;-80
2022/10/12 03:48:09;;;;;;;4.82;4.32;;;;;;;6.66;100.00;102519.13;5122512;28;20039;-80
2022/10/12 03:50:37;;;;;;;5.15;3.58;;;;;;;6.65;100.00;102517.31;5089727;28;20369;-80
2022/10/12 03:53:06;;;;;;;8.27;4.20;;;;;;;6.66;100.00;102523.47;5128736;27;20035;-80
2022/10/12 03:55:40;;;;;;;7.10;4.88;;;;;;;6.66;100.00;102515.63;5083529;27;20444;-80
2022/10/12 03:58:08;;;;;;;10.40;4.63;;;;;;;6.70;100.00;102522.78;5117717;27;20413;-80
2022/10/12 04:00:37;;;;;;;8.85;4.65;;;;;;;6.71;100.00;102514.09;5108721;27;20051;-81
2022/10/12 04:03:05;;;;;;;12.82;4.80;;;;;;;6.71;100.00;102512.38;5084024;27;20110;-81
2022/10/12 04:05:34;;;;;;;10.75;5.00;;;;;;;6.73;100.00;102518.59;5121989;27;20536;-80
2022/10/12 04:08:02;;;;;;;6.38;4.00;;;;;;;6.74;100.00;102514.25;5101137;27;20443;-80
2022/10/12 04:10:30;;;;;;;6.63;4.65;;;;;;;6.74;100.00;102515.13;5112049;27;20260;-80
2022/10/12 04:12:59;;;;;;;12.20;4.60;;;;;;;6.75;100.00;102505.56;5080942;27;20051;-80
2022/10/12 04:15:27;;;;;;;8.27;4.05;;;;;;;6.75;100.00;102508.19;5096811;27;20136;-80
2022/10/12 04:17:55;;;;;;;6.88;4.10;;;;;;;6.74;100.00;102509.88;5109232;27;20058;-81
2022/10/12 04:20:24;;;;;;;6.93;3.95;;;;;;;6.74;100.00;102507.28;5114788;27;20250;-80
2022/10/12 04:22:52;;;;;;;9.30;4.85;;;;;;;6.74;100.00;102509.00;5100186;27;20500;-81
2022/10/12 04:25:22;;;;;;;11.88;4.85;;;;;;;6.71;100.00;102508.84;5100700;27;20680;-80
2022/10/12 04:27:57;;;;;;;6.63;4.03;;;;;;;6.71;100.00;102504.53;5088363;27;20150;-80
2022/10/12 04:30:26;;;;;;;6.70;3.67;;;;;;;6.72;100.00;102501.06;5098980;27;20043;-79
2022/10/12 04:32:54;;;;;;;11.82;3.67;;;;;;;6.72;100.00;102500.19;5118045;27;20390;-80
2022/10/12 04:35:23;;;;;;;7.47;4.00;;;;;;;6.71;100.00;102501.00;5115136;27;20268;-80
2022/10/12 04:37:53;;;;;;;7.80;3.53;;;;;;;6.71;100.00;102508.84;5128110;27;20043;-81
2022/10/12 04:40:21;;;;;;;9.63;3.73;;;;;;;6.71;100.00;102506.22;5098909;27;20050;-81
2022/10/12 04:42:50;;;;;;;10.45;4.55;;;;;;;6.70;100.00;102505.34;5080025;27;20047;-81
2022/10/12 04:45:19;;;;;;;7.25;4.18;;;;;;;6.69;100.00;102508.81;5118358;27;20442;-81
2022/10/12 04:47:47;;;;;;;9.30;3.78;;;;;;;6.71;100.00;102514.09;5086940;27;20035;-81
2022/10/12 04:50:16;;;;;;;8.40;3.83;;;;;;;6.70;100.00;102509.69;5102081;28;20346;-81
2022/10/12 04:52:44;;;;;;;11.18;4.10;;;;;;;6.70;100.00;102507.06;5111771;27;20066;-79
2022/10/12 04:55:13;;;;;;;7.03;3.78;;;;;;;6.69;100.00;102507.88;5088218;27;20260;-80
2022/10/12 04:57:41;;;;;;;4.60;3.95;;;;;;;6.68;100.00;102513.97;5111897;27;20054;-80
2022/10/12 05:00:10;;;;;;;8.05;3.90;;;;;;;6.66;100.00;102523.47;5063688;27;20043;-81
2022/10/12 05:02:39;;;;;;;10.00;4.60;;;;;;;6.65;100.00;102512.09;5090381;28;20040;-79
2022/10/12 05:05:08;;;;;;;16.42;5.07;;;;;;;6.65;100.00;102509.47;5088304;27;20040;-80
2022/10/12 05:07:36;;;;;;;12.90;4.05;;;;;;;6.64;100.00;102502.44;5121529;27;20044;-81
2022/10/12 05:10:05;;;;;;;6.35;4.05;;;;;;;6.63;100.00;102504.19;5084914;27;20044;-80
2022/10/12 05:12:34;;;;;;;11.85;6.03;;;;;;;6.62;100.00;102501.50;5111825;27;20039;-80
2022/10/12 05:15:03;;;;;;;10.88;4.70;;;;;;;6.62;100.00;102501.50;5055809;28;20378;-80
2022/10/12 05:17:31;;;;;;;13.15;5.57;;;;;;;6.60;100.00;102504.03;5118926;27;20042;-81
2022/10/12 05:19:59;;;;;;;6.45;3.95;;;;;;;6.60;100.00;102501.41;5107722;27;20051;-81
2022/10/12 05:22:30;;;;;;;5.75;3.63;;;;;;;6.61;100.00;102499.69;5105363;27;20036;-80
2022/10/12 05:24:58;;;;;;;7.65;4.32;;;;;;;6.58;100.00;102510.94;5127192;27;20047;-82
2022/10/12 05:27:27;;;;;;;7.68;3.95;;;;;;;6.58;100.00;102510.94;5091116;27;20614;-80
2022/10/12 05:29:55;;;;;;;8.02;3.90;;;;;;;6.56;100.00;102502.09;5099717;27;20035;-80
2022/10/12 05:32:23;;;;;;;12.75;4.30;;;;;;;6.53;100.00;102499.34;5085543;27;20463;-80
2022/10/12 05:34:53;;;;;;;10.75;5.38;;;;;;;6.51;100.00;102502.72;5104176;27;20058;-81
2022/10/12 05:37:22;;;;;;;11.52;4.80;;;;;;;6.50;100.00;102496.56;5104313;27;20239;-80
2022/10/12 05:39:50;;;;;;;12.60;4.75;;;;;;;6.49;100.00;102493.91;5108723;28;20054;-80
2022/10/12 05:42:19;;;;;;;18.55;5.00;;;;;;;6.46;100.00;102498.97;5113893;27;20050;-81
2022/10/12 05:44:47;;;;;;;9.73;4.20;;;;;;;6.45;100.00;102500.72;5105785;28;20076;-79
2022/10/12 05:47:15;;;;;;;9.18;4.38;;;;;;;6.44;100.00;102498.91;5074822;27;20266;-81
2022/10/12 05:49:47;;;;;;;9.75;5.07;;;;;;;6.42;100.00;102500.56;5098071;27;20047;-80
2022/10/12 05:52:15;;;;;;;10.07;5.18;;;;;;;6.39;100.00;102490.84;5101942;27;20155;-79
2022/10/12 05:54:45;;;;;;;11.88;5.05;;;;;;;6.37;100.00;102484.63;5129606;27;20039;-82
2022/10/12 05:57:18;;;;;;;13.05;4.97;;;;;;;6.37;100.00;102494.19;5103125;27;20047;-82
2022/10/12 05:59:46;;;;;;;8.18;4.75;;;;;;;6.36;100.00;102492.41;5102412;28;20031;-81
2022/10/12 06:02:17;;;;;;;17.40;6.20;;;;;;;6.35;100.00;102493.22;5064857;27;20051;-81
2022/10/12 06:04:46;;;;;;;11.20;6.10;;;;;;;6.33;100.00;102498.41;5121012;27;20040;-81
2022/10/12 06:07:15;;;;;;;14.60;6.10;;;;;;;6.31;100.00;102494.81;5075219;28;20665;-81
2022/10/12 06:09:43;;;;;;;14.48;6.55;;;;;;;6.32;100.00;102486.13;5114923;27;20059;-81
2022/10/12 06:12:12;;;;;;;13.68;5.97;;;;;;;6.33;100.00;102487.94;5095045;27;20048;-81
2022/10/12 06:14:40;;;;;;;17.13;7.18;;;;;;;6.33;100.00;102480.09;5113700;27;20042;-81
2022/10/12 06:17:09;;;;;;;15.82;7.40;;;;;;;6.34;100.00;102478.38;5085240;27;20286;-82
2022/10/12 06:19:38;;;;;;;11.88;7.07;;;;;;;6.35;100.00;102488.91;5118640;27;20043;-81
2022/10/12 06:22:06;;;;;;;13.43;6.88;;;;;;;6.37;100.00;102491.56;5084069;27;20152;-82
2022/10/12 06:24:35;;;;;;;14.30;6.80;;;;;;;6.36;100.00;102490.69;5119639;27;20614;-82
2022/10/12 06:27:03;;;;;;;11.40;6.35;;;;;;;6.35;100.00;102490.63;5072638;28;20031;-81
2022/10/12 06:29:32;;;;;;;12.25;6.45;;;;;;;6.37;100.00;102486.34;5096456;27;20108;-81
2022/10/12 06:32:01;;;;;;;17.48;7.07;;;;;;;6.36;100.00;102495.03;5099844;27;20039;-80
2022/10/12 06:34:29;;;;;;;16.52;7.30;;;;;;;6.35;100.00;102501.09;5074082;27;20040;-81
2022/10/12 06:36:57;;;;;;;15.40;7.38;;;;;;;6.36;100.00;102481.94;5123508;27;20055;-80
2022/10/12 06:39:29;;;;;;;21.38;7.75;;;;;;;6.37;100.00;102488.97;5095956;27;20058;-82
2022/10/12 06:41:59;;;;;;;12.82;6.63;;;;;;;6.39;100.00;102482.06;5102151;27;20043;-80
2022/10/12 06:44:28;;;;;;;16.27;8.25;;;;;;;6.40;100.00;102481.25;5119449;27;20031;-80
2022/10/12 06:46:57;;;;;;;14.65;7.78;;;;;;;6.44;100.00;102488.44;5122473;27;20047;-80
2022/10/12 06:49:25;;;;;;;15.82;7.85;;;;;;;6.47;100.00;102488.59;5086025;27;20403;-80
2022/10/12 06:51:53;;;;;;;17.55;7.70;;;;;;;6.51;100.00;102492.25;5114379;27;20059;-81
2022/10/12 06:54:22;;;;;;;25.10;8.02;;;;;;;6.57;100.00;102488.16;5123860;27;20471;-81
2022/10/12 06:56:50;;;;;;;17.98;8.38;;;;;;;6.64;100.00;102484.13;5141258;27;20240;-81
2022/10/12 06:59:25;;;;;;;21.90;10.25;;;;;;;6.69;100.00;102495.72;5111778;27;20047;-81
2022/10/12 07:01:53;;;;;;;17.38;9.32;;;;;;;6.75;100.00;102493.34;5107966;27;20042;-81
2022/10/12 07:04:23;;;;;;;16.17;8.15;;;;;;;6.80;100.00;102488.31;5044975;27;20031;-81
2022/10/12 07:06:55;;;;;;;19.67;8.73;;;;;;;6.86;100.00;102488.56;5108883;27;20043;-80
2022/10/12 07:09:23;;;;;;;18.50;8.60;;;;;;;6.92;100.00;102490.56;5089993;27;20043;-80
2022/10/12 07:11:51;;;;;;;21.98;8.48;;;;;;;6.97;100.00;102491.69;5127816;27;20043;-80
2022/10/12 07:14:20;;;;;;;14.63;7.22;;;;;;;7.03;100.00;102482.38;5095981;27;20035;-81
2022/10/12 07:16:50;;;;;;;16.92;8.10;;;;;;;7.11;100.00;102482.72;5101091;27;20043;-81
2022/10/12 07:19:22;;;;;;;19.88;8.68;;;;;;;7.18;100.00;102487.41;5062667;27;20404;-82
2022/10/12 07:21:51;;;;;;;22.17;8.23;;;;;;;7.27;100.00;102488.63;5101728;27;20746;-80
2022/10/12 07:24:20;;;;;;;19.77;8.50;;;;;;;7.34;100.00;102488.06;5090186;27;20051;-84
2022/10/12 07:26:50;;;;;;;18.35;8.25;;;;;;;7.42;100.00;102484.03;5071371;27;20058;-81
2022/10/12 07:29:18;;;;;;;14.48;8.23;;;;;;;7.52;100.00;102487.91;5100014;27;20039;-82
2022/10/12 07:31:47;;;;;;;14.73;7.55;;;;;;;7.60;100.00;102489.16;5099724;27;20577;-80
2022/10/12 07:34:19;;;;;;;14.85;7.78;;;;;;;7.71;100.00;102482.63;5121034;27;20059;-80
2022/10/12 07:36:47;;;;;;;15.25;7.85;;;;;;;7.82;100.00;102488.28;5116290;27;20050;-85
2022/10/12 07:39:28;;;;;;;15.52;8.43;;;;;;;7.92;100.00;102487.84;5083791;27;20476;-81
2022/10/12 07:41:56;;;;;;;17.38;7.97;;;;;;;8.03;100.00;102490.88;5100363;28;20044;-80
2022/10/12 07:44:25;;;;;;;17.27;7.90;;;;;;;8.15;100.00;102493.13;5093117;28;20040;-81
2022/10/12 07:46:53;;;;;;;15.73;7.40;;;;;;;8.27;100.00;102490.97;5087237;27;20048;-81
2022/10/12 07:49:22;;;;;;;13.05;7.60;;;;;;;8.41;100.00;102483.59;5071401;28;20039;-82
2022/10/12 07:51:51;;;;;;;13.32;6.78;;;;;;;8.58;100.00;102484.28;5081239;28;20043;-80
2022/10/12 07:54:20;;;;;;;13.27;6.82;;;;;;;8.77;100.00;102486.78;5104606;27;20052;-82
2022/10/12 07:56:56;;;;;;;8.30;5.88;;;;;;;9.04;100.00;102480.72;5088290;28;20040;-81
2022/10/12 07:59:24;;;;;;;12.45;6.18;;;;;;;9.36;100.00;102488.84;5106388;27;20388;-81
2022/10/12 08:01:52;;;;;;;13.43;6.60;;;;;;;9.73;100.00;102483.09;5095692;28;20457;-81
2022/10/12 08:04:21;;;;;;;10.50;6.68;;;;;;;10.09;100.00;102479.84;5087761;28;20046;-80
2022/10/12 08:06:50;;;;;;;12.30;6.32;;;;;;;10.42;100.00;102471.19;5067809;28;20197;-81
2022/10/12 08:09:18;;;;;;;16.92;7.90;;;;;;;10.69;100.00;102475.47;5091526;28;20504;-82
2022/10/12 08:11:47;;;;;;;11.98;6.63;;;;;;;10.96;100.00;102472.72;5073295;28;20241;-81
2022/10/12 08:14:15;;;;;;;12.13;5.95;;;;;;;11.22;100.00;102468.16;5089292;28;20411;-81
2022/10/12 08:16:44;;;;;;;13.25;5.95;;;;;;;11.34;100.00;102471.97;5103863;27;20254;-81
2022/10/12 08:19:13;;;;;;;8.98;5.47;;;;;;;11.41;100.00;102477.44;5092550;28;20384;-80
2022/10/12 08:21:41;;;;;;;14.30;6.55;;;;;;;11.44;100.00;102484.56;5049931;28;20068;-81
2022/10/12 08:24:12;;;;;;;11.63;6.00;;;;;;;11.37;100.00;102488.78;5104638;28;20404;-80
2022/10/12 08:26:40;;;;;;;12.75;6.25;;;;;;;11.20;100.00;102483.06;5089804;28;20177;-81
2022/10/12 08:29:09;;;;;;;12.38;5.72;;;;;;;11.09;100.00;102485.38;5075152;28;20031;-79
2022/10/12 08:31:38;;;;;;;14.00;6.78;;;;;;;11.18;100.00;102481.22;5101776;28;20632;-80
2022/10/12 08:34:07;;;;;;;16.42;6.40;;;;;;;11.30;100.00;102477.19;5110003;27;20043;-81
2022/10/12 08:36:36;;;;;;;11.23;6.55;;;;;;;11.46;100.00;102478.47;5047201;28;20547;-80
2022/10/12 08:39:07;;;;;;;12.50;6.25;;;;;;;11.66;100.00;102475.41;5102580;28;20052;-80
2022/10/12 08:41:35;;;;;;;;;;;;;;;11.84;100.00;102480.28;5085310;27;20039;-81
2022/10/12 08:44:20;;;;;;;12.82;6.38;;;;;;;12.04;100.00;102483.41;5087738;27;19930;-81
2022/10/12 08:46:56;;;;;;;13.77;6.68;;;;;;;12.17;100.00;102474.91;5109548;27;20062;-81
2022/10/12 08:49:30;;;;;;;11.60;5.72;;;;;;;12.23;100.00;102464.47;5096344;27;20051;-80
2022/10/12 08:52:05;;;;;;;15.20;5.85;;;;;;;12.28;100.00;102462.81;5038667;28;20043;-81
2022/10/12 08:54:44;;;;;;;13.98;6.07;;;;;;;12.37;100.00;102461.25;5101124;27;20519;-82
2022/10/12 08:57:16;;;;;;;12.57;6.03;;;;;;;12.48;100.00;102465.91;5092874;27;20519;-80
2022/10/12 08:59:46;;;;;;;16.13;6.50;;;;;;;12.56;100.00;102470.47;5085787;28;20071;-80
2022/10/12 09:02:29;;;;;;;14.52;6.18;;;;;;;12.61;100.00;102476.75;5119718;27;20069;-80
2022/10/12 09:05:30;;;;;;;12.40;6.30;;;;;;;12.61;100.00;102471.47;5109055;27;20048;-80
2022/10/12 09:08:27;;;;;;;12.65;5.93;;;;;;;12.51;100.00;102472.09;5058026;27;20499;-80
2022/10/12 09:11:20;;;;;;;13.60;6.10;;;;;;;12.36;100.00;102470.03;5047537;28;20053;-80
2022/10/12 09:14:00;;;;;;;10.93;5.68;;;;;;;12.18;100.00;102465.25;5037094;28;20174;-83
2022/10/12 09:16:32;;;;;;;14.00;6.55;;;;;;;12.00;100.00;102473.63;5039320;28;20044;-80
2022/10/12 09:19:16;;;;;;;12.75;6.38;;;;;;;11.87;100.00;102470.66;5046285;28;20052;-81
2022/10/12 09:21:50;;;;;;;13.90;6.40;;;;;;;11.84;100.00;102475.88;5051328;28;20374;-81
2022/10/12 09:24:24;;;;;;;12.10;6.53;;;;;;;11.81;100.00;102469.63;5005286;28;20041;-81
2022/10/12 09:27:02;;;;;;;14.18;6.68;;;;;;;11.82;100.00;102469.66;5035827;28;20457;-82
2022/10/12 09:29:32;;;;;;;14.27;5.97;;;;;;;11.90;100.00;102468.13;5016206;28;20040;-81
2022/10/12 09:32:19;;;;;;;18.40;6.10;;;;;;;12.03;100.00;102464.03;5051397;28;20060;-80
2022/10/12 09:34:48;;;;;;;13.02;5.82;;;;;;;12.09;100.00;102465.91;5039913;28;20064;-80
2022/10/12 09:37:29;;;;;;;13.60;5.90;;;;;;;12.15;100.00;102465.16;5028319;28;20043;-80
2022/10/12 09:40:00;;;;;;;12.55;5.55;;;;;;;12.15;100.00;102458.09;4998047;28;20087;-80
2022/10/12 09:42:31;;;;;;;14.60;5.80;;;;;;;12.16;100.00;102462.56;5055572;28;20052;-79
2022/10/12 09:45:15;;;;;;;14.13;5.72;;;;;;;12.18;100.00;102466.13;5082672;28;20040;-79
2022/10/12 09:48:20;;;;;;;11.60;5.05;;;;;;;12.19;100.00;102467.00;5104756;27;20329;-80
2022/10/12 09:50:57;;;;;;;15.60;5.28;;;;;;;12.19;100.00;102467.91;5090868;28;20244;-79
2022/10/12 09:53:53;;;;;;;9.93;5.20;;;;;;;12.22;100.00;102472.38;5090821;28;20412;-80
2022/10/12 09:56:29;;;;;;;12.75;5.35;;;;;;;12.23;100.00;102468.84;5042867;28;20055;-80
2022/10/12 09:59:01;;;;;;;11.25;5.20;;;;;;;12.23;100.00;102464.47;5082582;28;20036;-79
2022/10/12 10:01:32;;;;;;;17.83;5.40;;;;;;;12.24;100.00;102470.66;5079597;28;20664;-80
2022/10/12 10:04:16;;;;;;;14.77;6.50;;;;;;;12.23;100.00;102466.22;5096379;28;20047;-80
2022/10/12 10:06:45;;;;;;;13.25;5.97;;;;;;;12.25;100.00;102468.03;5095491;27;20044;-80
2022/10/12 10:09:35;;;;;;;13.45;6.00;;;;;;;12.27;100.00;102466.31;5098021;28;20063;-79
2022/10/12 10:12:24;;;;;;;14.10;5.68;;;;;;;12.37;100.00;102467.41;5064999;27;20391;-79
2022/10/12 10:14:58;;;;;;;12.70;5.23;;;;;;;12.49;100.00;102461.50;5086292;28;20044;-79
2022/10/12 10:17:30;;;;;;;8.13;4.60;;;;;;;12.60;100.00;102459.06;5084608;28;20040;-79
2022/10/12 10:20:02;;;;;;;11.23;4.65;;;;;;;12.72;100.00;102458.44;5088870;28;20390;-79
2022/10/12 10:22:31;;;;;;;10.88;4.90;;;;;;;12.81;100.00;102451.56;5092224;28;20044;-78
2022/10/12 10:25:00;;;;;;;10.32;4.78;;;;;;;12.92;100.00;102456.19;5098798;28;20047;-79
2022/10/12 10:27:36;;;;;;;13.80;4.85;;;;;;;13.01;100.00;102456.38;5064074;28;20483;-78
2022/10/12 10:30:17;;;;;;;9.82;4.55;;;;;;;13.09;100.00;102446.81;5092047;28;20055;-79
2022/10/12 10:33:30;;;;;;;17.08;5.18;;;;;;;13.19;100.00;102455.78;5093974;28;20044;-79
2022/10/12 10:36:21;;;;;;;16.05;4.72;;;;;;;13.25;100.00;102447.94;5091980;27;20409;-79
2022/10/12 10:39:24;;;;;;;12.45;4.88;;;;;;;13.32;100.00;102444.59;5066542;28;20032;-79
2022/10/12 10:41:54;;;;;;;13.05;4.65;;;;;;;13.41;100.00;102443.88;5057069;28;20390;-79
2022/10/12 10:44:32;;;;;;;12.02;3.92;;;;;;;13.49;100.00;102444.00;5071585;28;20389;-80
2022/10/12 10:47:12;;;;;;;8.07;3.58;;;;;;;13.55;100.00;102442.31;5066428;28;20043;-80
2022/10/12 10:49:44;;;;;;;12.07;3.60;;;;;;;13.58;100.00;102428.25;5113323;27;20183;-81
2022/10/12 10:52:22;;;;;;;10.45;4.10;;;;;;;13.62;100.00;102436.25;5095984;28;20051;-80
2022/10/12 10:55:09;;;;;;;12.02;3.67;;;;;;;13.65;100.00;102438.09;5106470;28;20040;-80
2022/10/12 10:57:44;;;;;;;14.90;4.25;;;;;;;13.68;100.00;102426.63;5053334;28;20032;-80
2022/10/12 11:00:18;;;;;;;9.52;3.17;;;;;;;13.72;100.00;102413.44;5090009;28;20044;-79
2022/10/12 11:03:15;;;;;;;9.77;3.28;;;;;;;13.76;100.00;102412.66;5091498;28;20039;-80
2022/10/12 11:05:53;;;;;;;12.52;3.40;;;;;;;13.78;100.00;102410.91;5105288;28;20148;-79
2022/10/12 11:08:25;;;;;;;13.88;3.58;;;;;;;13.82;100.00;102396.84;5090333;28;20048;-79
2022/10/12 11:10:59;;;;;;;8.20;3.28;;;;;;;13.86;100.00;102396.91;5116802;27;20036;-80
2022/10/12 11:13:33;;;;;;;10.98;3.30;;;;;;;13.89;100.00;102391.63;5058279;28;20048;-79
2022/10/12 11:16:29;;;;;;;10.88;2.88;;;;;;;13.92;100.00;102387.25;5085534;28;20054;-79
2022/10/12 11:19:20;;;;;;;7.80;2.67;;;;;;;13.95;100.00;102382.00;5089308;28;20400;-81
2022/10/12 11:22:04;;;;;;;12.10;3.53;;;;;;;13.97;100.00;102385.56;5094583;28;20047;-79
2022/10/12 11:24:44;;;;;;;7.93;2.85;;;;;;;14.00;100.00;102390.88;5114630;27;20597;-79
2022/10/12 11:27:25;;;;;;;8.57;2.60;;;;;;;14.03;100.00;102375.03;5093866;28;20032;-80
2022/10/12 11:29:57;;;;;;;8.75;2.42;;;;;;;14.08;100.00;102382.16;5091860;28;20419;-80
2022/10/12 11:32:44;;;;;;;8.27;2.50;;;;;;;14.10;100.00;102372.47;5079654;28;20247;-80
2022/10/12 11:35:26;;;;;;;13.00;2.97;;;;;;;14.14;100.00;102367.25;5085947;28;20055;-79
2022/10/12 11:38:22;;;;;;;6.25;2.53;;;;;;;14.20;100.00;102363.78;5096557;28;20047;-79
2022/10/12 11:41:23;;;;;;;10.25;2.78;;;;;;;14.22;100.00;102357.59;5057756;28;20052;-79
2022/10/12 11:44:19;;;;;;;8.48;2.65;;;;;;;14.27;100.00;102362.06;5030887;28;20044;-81
2022/10/12 11:47:05;;;;;;;9.15;2.70;;;;;;;14.31;100.00;102361.22;5066693;28;20321;-80
2022/10/12 11:50:09;;;;;;;7.80;2.30;;;;;;;14.33;98.79;102362.13;5064927;28;20080;-79